sensor_id;sensor_type;location;lat;lon;timestamp;pressure;altitude;pressure_sealevel;temperature;humidity
15405;BME280;7801;48.124;11.590;2022-09-13T00:01:21;95213.69;;;15.34;87.25
15405;BME280;7801;48.124;11.590;2022-09-13T00:03:47;95211.78;;;15.14;87.34
15405;BME280;7801;48.124;11.590;2022-09-13T00:06:17;95203.97;;;15.00;87.13
15405;BME280;7801;48.124;11.590;2022-09-13T00:08:45;95204.25;;;14.78;88.06
15405;BME280;7801;48.124;11.590;2022-09-13T00:11:20;95209.97;;;14.97;89.43
15405;BME280;7801;48.124;11.590;2022-09-13T00:13:48;95197.88;;;15.21;89.09
15405;BME280;7801;48.124;11.590;2022-09-13T00:16:35;95200.00;;;15.36;90.04
15405;BME280;7801;48.124;11.590;2022-09-13T00:19:01;95190.50;;;15.38;88.67
15405;BME280;7801;48.124;11.590;2022-09-13T00:21:26;95190.66;;;15.42;88.60
15405;BME280;7801;48.124;11.590;2022-09-13T00:23:53;95188.25;;;15.49;87.83
15405;BME280;7801;48.124;11.590;2022-09-13T00:26:23;95187.00;;;15.46;87.59
15405;BME280;7801;48.124;11.590;2022-09-13T00:28:51;95179.16;;;15.41;87.37
15405;BME280;7801;48.124;11.590;2022-09-13T00:31:20;95185.38;;;15.33;87.70
15405;BME280;7801;48.124;11.590;2022-09-13T00:33:47;95180.41;;;15.44;87.19
15405;BME280;7801;48.124;11.590;2022-09-13T00:36:12;95179.38;;;15.36;87.69
15405;BME280;7801;48.124;11.590;2022-09-13T00:38:40;95168.56;;;15.33;87.93
15405;BME280;7801;48.124;11.590;2022-09-13T00:41:10;95170.69;;;15.39;87.89
15405;BME280;7801;48.124;11.590;2022-09-13T00:43:51;95169.53;;;15.28;88.34
15405;BME280;7801;48.124;11.590;2022-09-13T00:46:22;95169.06;;;15.26;88.47
15405;BME280;7801;48.124;11.590;2022-09-13T00:48:55;95166.03;;;15.36;87.23
15405;BME280;7801;48.124;11.590;2022-09-13T00:51:22;95168.94;;;15.43;87.16
15405;BME280;7801;48.124;11.590;2022-09-13T00:53:56;95175.06;;;15.44;87.90
15405;BME280;7801;48.124;11.590;2022-09-13T00:56:36;95169.66;;;15.32;88.23
15405;BME280;7801;48.124;11.590;2022-09-13T00:59:10;95181.59;;;15.13;87.64
15405;BME280;7801;48.124;11.590;2022-09-13T01:01:48;95172.94;;;15.17;88.31
15405;BME280;7801;48.124;11.590;2022-09-13T01:04:18;95173.38;;;15.19;88.06
15405;BME280;7801;48.124;11.590;2022-09-13T01:06:46;95168.47;;;15.00;87.82
15405;BME280;7801;48.124;11.590;2022-09-13T01:09:13;95169.59;;;15.20;88.00
15405;BME280;7801;48.124;11.590;2022-09-13T01:11:49;95162.44;;;15.11;88.07
15405;BME280;7801;48.124;11.590;2022-09-13T01:14:24;95154.09;;;15.13;87.15
15405;BME280;7801;48.124;11.590;2022-09-13T01:16:52;95146.56;;;14.86;87.74
15405;BME280;7801;48.124;11.590;2022-09-13T01:19:19;95141.75;;;15.00;88.90
15405;BME280;7801;48.124;11.590;2022-09-13T01:25:29;95138.13;;;15.04;87.92
15405;BME280;7801;48.124;11.590;2022-09-13T01:39:52;95124.25;;;15.11;88.72
15405;BME280;7801;48.124;11.590;2022-09-13T01:48:16;95127.88;;;14.86;88.73
15405;BME280;7801;48.124;11.590;2022-09-13T01:50:56;95127.88;;;14.86;88.05
15405;BME280;7801;48.124;11.590;2022-09-13T01:53:39;95123.13;;;14.91;88.24
15405;BME280;7801;48.124;11.590;2022-09-13T01:56:15;95123.37;;;14.98;88.18
15405;BME280;7801;48.124;11.590;2022-09-13T01:59:09;95120.06;;;15.01;87.76
15405;BME280;7801;48.124;11.590;2022-09-13T02:01:43;95128.16;;;14.93;89.09
15405;BME280;7801;48.124;11.590;2022-09-13T02:04:17;95123.31;;;15.07;88.78
15405;BME280;7801;48.124;11.590;2022-09-13T02:07:09;95120.59;;;14.95;88.33
15405;BME280;7801;48.124;11.590;2022-09-13T02:09:44;95118.34;;;14.97;88.20
15405;BME280;7801;48.124;11.590;2022-09-13T02:12:19;95126.97;;;14.82;88.96
15405;BME280;7801;48.124;11.590;2022-09-13T02:15:08;95130.50;;;14.94;89.26
15405;BME280;7801;48.124;11.590;2022-09-13T02:17:38;95126.72;;;14.95;88.13
15405;BME280;7801;48.124;11.590;2022-09-13T02:20:19;95115.00;;;15.08;88.49
15405;BME280;7801;48.124;11.590;2022-09-13T02:22:53;95119.22;;;15.09;88.91
15405;BME280;7801;48.124;11.590;2022-09-13T02:25:21;95120.34;;;15.08;88.46
15405;BME280;7801;48.124;11.590;2022-09-13T02:27:54;95122.84;;;14.84;87.86
15405;BME280;7801;48.124;11.590;2022-09-13T02:30:23;95127.38;;;14.92;88.92
15405;BME280;7801;48.124;11.590;2022-09-13T02:32:59;95128.41;;;15.00;88.12
15405;BME280;7801;48.124;11.590;2022-09-13T02:35:30;95129.63;;;15.02;88.81
15405;BME280;7801;48.124;11.590;2022-09-13T02:38:05;95122.34;;;15.11;88.18
15405;BME280;7801;48.124;11.590;2022-09-13T02:40:48;95135.06;;;14.94;87.67
15405;BME280;7801;48.124;11.590;2022-09-13T02:43:37;95128.94;;;14.93;88.62
15405;BME280;7801;48.124;11.590;2022-09-13T02:48:59;95129.81;;;14.97;87.31
15405;BME280;7801;48.124;11.590;2022-09-13T02:55:18;95134.78;;;14.87;88.06
15405;BME280;7801;48.124;11.590;2022-09-13T02:57:58;95129.59;;;14.90;88.84
15405;BME280;7801;48.124;11.590;2022-09-13T03:00:25;95139.06;;;14.79;88.93
15405;BME280;7801;48.124;11.590;2022-09-13T03:02:52;95138.34;;;14.70;88.27
15405;BME280;7801;48.124;11.590;2022-09-13T03:05:19;95134.66;;;14.83;88.11
15405;BME280;7801;48.124;11.590;2022-09-13T03:07:46;95141.09;;;14.82;89.21
15405;BME280;7801;48.124;11.590;2022-09-13T03:10:13;95133.81;;;14.91;88.76
15405;BME280;7801;48.124;11.590;2022-09-13T03:24:14;95135.22;;;14.68;88.16
15405;BME280;7801;48.124;11.590;2022-09-13T03:32:49;95124.25;;;14.90;88.17
15405;BME280;7801;48.124;11.590;2022-09-13T03:35:40;95132.72;;;14.63;88.09
15405;BME280;7801;48.124;11.590;2022-09-13T03:39:24;95131.28;;;14.74;89.63
15405;BME280;7801;48.124;11.590;2022-09-13T03:41:50;95122.00;;;14.71;88.39
15405;BME280;7801;48.124;11.590;2022-09-13T03:44:19;95118.22;;;14.52;87.48
15405;BME280;7801;48.124;11.590;2022-09-13T03:46:48;95110.00;;;14.57;89.32
15405;BME280;7801;48.124;11.590;2022-09-13T03:49:17;95112.16;;;14.63;88.11
15405;BME280;7801;48.124;11.590;2022-09-13T03:51:47;95115.16;;;14.62;88.27
15405;BME280;7801;48.124;11.590;2022-09-13T03:54:21;95130.94;;;14.46;87.76
15405;BME280;7801;48.124;11.590;2022-09-13T03:57:11;95128.97;;;14.64;89.25
15405;BME280;7801;48.124;11.590;2022-09-13T03:59:40;95129.09;;;14.67;89.16
15405;BME280;7801;48.124;11.590;2022-09-13T04:02:06;95136.88;;;14.52;89.13
15405;BME280;7801;48.124;11.590;2022-09-13T04:04:38;95143.22;;;14.68;89.34
15405;BME280;7801;48.124;11.590;2022-09-13T04:07:06;95135.09;;;14.64;89.40
15405;BME280;7801;48.124;11.590;2022-09-13T04:09:32;95128.25;;;14.55;89.08
15405;BME280;7801;48.124;11.590;2022-09-13T04:11:58;95134.91;;;14.69;88.79
15405;BME280;7801;48.124;11.590;2022-09-13T04:14:25;95128.50;;;14.62;88.47
15405;BME280;7801;48.124;11.590;2022-09-13T04:16:52;95131.63;;;14.64;89.02
15405;BME280;7801;48.124;11.590;2022-09-13T04:19:23;95130.00;;;14.51;88.36
15405;BME280;7801;48.124;11.590;2022-09-13T04:21:50;95131.13;;;14.70;88.30
15405;BME280;7801;48.124;11.590;2022-09-13T04:24:17;95122.78;;;14.72;88.89
15405;BME280;7801;48.124;11.590;2022-09-13T04:26:47;95126.34;;;14.76;88.79
15405;BME280;7801;48.124;11.590;2022-09-13T04:29:15;95130.47;;;14.73;88.03
15405;BME280;7801;48.124;11.590;2022-09-13T04:31:44;95130.72;;;14.81;88.66
15405;BME280;7801;48.124;11.590;2022-09-13T04:34:11;95134.84;;;14.78;87.99
15405;BME280;7801;48.124;11.590;2022-09-13T04:36:37;95128.50;;;14.62;88.46
15405;BME280;7801;48.124;11.590;2022-09-13T04:39:05;95131.63;;;14.64;88.17
15405;BME280;7801;48.124;11.590;2022-09-13T04:41:32;95134.25;;;14.72;88.30
15405;BME280;7801;48.124;11.590;2022-09-13T04:43:59;95130.59;;;14.77;87.62
15405;BME280;7801;48.124;11.590;2022-09-13T04:46:27;95133.25;;;14.77;88.49
15405;BME280;7801;48.124;11.590;2022-09-13T04:48:54;95130.87;;;14.84;88.38
15405;BME280;7801;48.124;11.590;2022-09-13T04:51:20;95136.47;;;14.70;88.93
15405;BME280;7801;48.124;11.590;2022-09-13T04:53:54;95133.25;;;14.77;88.23
15405;BME280;7801;48.124;11.590;2022-09-13T04:56:23;95142.19;;;14.81;87.93
15405;BME280;7801;48.124;11.590;2022-09-13T04:58:52;95140.38;;;14.73;89.24
15405;BME280;7801;48.124;11.590;2022-09-13T05:01:22;95139.72;;;14.76;88.12
15405;BME280;7801;48.124;11.590;2022-09-13T05:03:50;95142.81;;;14.87;88.76
15405;BME280;7801;48.124;11.590;2022-09-13T05:06:18;95140.44;;;14.85;88.22
15405;BME280;7801;48.124;11.590;2022-09-13T05:08:50;95145.19;;;14.79;87.83
15405;BME280;7801;48.124;11.590;2022-09-13T05:11:17;95138.69;;;14.68;87.66
15405;BME280;7801;48.124;11.590;2022-09-13T05:13:42;95142.19;;;14.81;88.27
15405;BME280;7801;48.124;11.590;2022-09-13T05:16:09;95142.84;;;14.78;88.06
15405;BME280;7801;48.124;11.590;2022-09-13T05:18:35;95145.97;;;14.80;87.86
15405;BME280;7801;48.124;11.590;2022-09-13T05:21:03;95146.50;;;14.73;88.33
15405;BME280;7801;48.124;11.590;2022-09-13T05:23:31;95143.13;;;14.85;88.47
15405;BME280;7801;48.124;11.590;2022-09-13T05:26:02;95138.06;;;14.92;87.72
15405;BME280;7801;48.124;11.590;2022-09-13T05:28:30;95135.38;;;14.92;87.72
15405;BME280;7801;48.124;11.590;2022-09-13T05:30:58;95138.25;;;15.08;87.38
15405;BME280;7801;48.124;11.590;2022-09-13T05:33:31;95160.59;;;15.03;87.76
15405;BME280;7801;48.124;11.590;2022-09-13T05:35:58;95160.41;;;15.08;87.85
15405;BME280;7801;48.124;11.590;2022-09-13T05:38:24;95152.66;;;15.16;86.41
15405;BME280;7801;48.124;11.590;2022-09-13T05:40:55;95156.44;;;15.15;87.10
15405;BME280;7801;48.124;11.590;2022-09-13T05:43:24;95155.00;;;15.17;86.80
15405;BME280;7801;48.124;11.590;2022-09-13T05:45:51;95147.56;;;15.23;87.03
15405;BME280;7801;48.124;11.590;2022-09-13T05:48:16;95149.12;;;15.24;87.02
15405;BME280;7801;48.124;11.590;2022-09-13T05:50:43;95146.13;;;15.25;87.07
15405;BME280;7801;48.124;11.590;2022-09-13T05:53:08;95143.41;;;15.34;86.86
15405;BME280;7801;48.124;11.590;2022-09-13T05:55:34;95143.66;;;15.20;87.35
15405;BME280;7801;48.124;11.590;2022-09-13T05:58:02;95143.72;;;15.32;87.48
15405;BME280;7801;48.124;11.590;2022-09-13T06:00:29;95144.97;;;15.35;87.15
15405;BME280;7801;48.124;11.590;2022-09-13T06:02:56;95151.19;;;15.39;86.84
15405;BME280;7801;48.124;11.590;2022-09-13T06:05:21;95155.25;;;15.45;86.18
15405;BME280;7801;48.124;11.590;2022-09-13T06:07:47;95151.19;;;15.39;85.78
15405;BME280;7801;48.124;11.590;2022-09-13T06:10:16;95149.75;;;15.41;87.54
15405;BME280;7801;48.124;11.590;2022-09-13T06:12:42;95142.66;;;15.45;86.27
15405;BME280;7801;48.124;11.590;2022-09-13T06:15:08;95146.13;;;15.46;85.88
15405;BME280;7801;48.124;11.590;2022-09-13T06:17:36;95139.47;;;15.52;86.03
15405;BME280;7801;48.124;11.590;2022-09-13T06:20:01;95135.81;;;16.02;89.79
15405;BME280;7801;48.124;11.590;2022-09-13T06:22:27;95136.66;;;16.39;85.80
15405;BME280;7801;48.124;11.590;2022-09-13T06:24:59;95147.63;;;16.70;82.24
15405;BME280;7801;48.124;11.590;2022-09-13T06:27:28;95155.63;;;16.95;80.05
15405;BME280;7801;48.124;11.590;2022-09-13T06:29:57;95151.69;;;17.16;78.61
15405;BME280;7801;48.124;11.590;2022-09-13T06:32:22;95149.84;;;17.33;80.28
15405;BME280;7801;48.124;11.590;2022-09-13T06:34:48;95135.88;;;17.39;79.63
15405;BME280;7801;48.124;11.590;2022-09-13T06:37:15;95141.78;;;17.45;78.19
15405;BME280;7801;48.124;11.590;2022-09-13T06:39:41;95142.72;;;17.52;77.12
15405;BME280;7801;48.124;11.590;2022-09-13T06:42:08;95135.22;;;17.58;76.25
15405;BME280;7801;48.124;11.590;2022-09-13T06:44:35;95139.03;;;17.57;76.47
15405;BME280;7801;48.124;11.590;2022-09-13T06:47:00;95139.47;;;17.59;76.25
15405;BME280;7801;48.124;11.590;2022-09-13T06:49:26;95140.94;;;17.57;76.25
15405;BME280;7801;48.124;11.590;2022-09-13T06:51:54;95147.53;;;17.59;76.50
15405;BME280;7801;48.124;11.590;2022-09-13T06:54:21;95143.44;;;17.77;80.65
15405;BME280;7801;48.124;11.590;2022-09-13T06:56:49;95137.06;;;17.82;81.13
15405;BME280;7801;48.124;11.590;2022-09-13T06:59:14;95146.94;;;17.94;80.72
15405;BME280;7801;48.124;11.590;2022-09-13T07:01:42;95142.44;;;17.98;80.46
15405;BME280;7801;48.124;11.590;2022-09-13T07:04:11;95138.53;;;17.95;79.52
15405;BME280;7801;48.124;11.590;2022-09-13T07:06:41;95136.19;;;17.94;78.54
15405;BME280;7801;48.124;11.590;2022-09-13T07:09:13;95133.16;;;17.95;78.97
15405;BME280;7801;48.124;11.590;2022-09-13T07:11:40;95129.34;;;17.96;78.13
15405;BME280;7801;48.124;11.590;2022-09-13T07:14:06;95125.22;;;17.99;78.42
15405;BME280;7801;48.124;11.590;2022-09-13T07:16:38;95131.50;;;17.91;77.96
15405;BME280;7801;48.124;11.590;2022-09-13T07:19:07;95126.06;;;17.87;78.63
15405;BME280;7801;48.124;11.590;2022-09-13T07:21:35;95136.19;;;17.94;78.28
15405;BME280;7801;48.124;11.590;2022-09-13T07:24:01;95148.69;;;18.02;78.79
15405;BME280;7801;48.124;11.590;2022-09-13T07:26:27;95156.06;;;18.05;75.34
15405;BME280;7801;48.124;11.590;2022-09-13T07:28:59;95149.00;;;17.84;74.15
15405;BME280;7801;48.124;11.590;2022-09-13T07:31:30;95148.94;;;17.69;73.00
15405;BME280;7801;48.124;11.590;2022-09-13T07:33:58;95139.72;;;17.54;74.05
15405;BME280;7801;48.124;11.590;2022-09-13T07:36:29;95142.62;;;17.49;74.12
15405;BME280;7801;48.124;11.590;2022-09-13T07:38:55;95153.84;;;17.39;73.97
15405;BME280;7801;48.124;11.590;2022-09-13T07:41:23;95145.47;;;17.40;74.59
15405;BME280;7801;48.124;11.590;2022-09-13T07:43:50;95136.41;;;17.45;73.63
15405;BME280;7801;48.124;11.590;2022-09-13T07:46:31;95133.28;;;17.43;73.36
15405;BME280;7801;48.124;11.590;2022-09-13T07:49:09;95138.66;;;17.43;73.20
15405;BME280;7801;48.124;11.590;2022-09-13T07:51:38;95143.81;;;17.36;74.03
15405;BME280;7801;48.124;11.590;2022-09-13T07:54:09;95141.47;;;17.34;74.39
15405;BME280;7801;48.124;11.590;2022-09-13T07:56:37;95145.91;;;17.42;74.09
15405;BME280;7801;48.124;11.590;2022-09-13T07:59:05;95148.59;;;17.42;74.76
15405;BME280;7801;48.124;11.590;2022-09-13T08:01:39;95149.38;;;17.43;74.68
15405;BME280;7801;48.124;11.590;2022-09-13T08:04:17;95148.78;;;17.49;74.93
15405;BME280;7801;48.124;11.590;2022-09-13T08:06:44;95139.72;;;17.54;73.87
15405;BME280;7801;48.124;11.590;2022-09-13T08:09:12;95140.69;;;17.62;72.90
15405;BME280;7801;48.124;11.590;2022-09-13T08:11:44;95136.78;;;17.59;72.79
15405;BME280;7801;48.124;11.590;2022-09-13T08:14:12;95135.28;;;17.74;71.79
15405;BME280;7801;48.124;11.590;2022-09-13T08:16:38;95140.06;;;17.80;71.43
15405;BME280;7801;48.124;11.590;2022-09-13T08:19:07;95146.06;;;17.90;71.38
15405;BME280;7801;48.124;11.590;2022-09-13T08:21:37;95147.13;;;18.01;71.66
15405;BME280;7801;48.124;11.590;2022-09-13T08:24:16;95146.16;;;18.09;70.76
15405;BME280;7801;48.124;11.590;2022-09-13T08:26:44;95136.06;;;18.18;70.66
15405;BME280;7801;48.124;11.590;2022-09-13T08:29:10;95133.66;;;18.29;72.21
15405;BME280;7801;48.124;11.590;2022-09-13T08:31:39;95134.41;;;18.29;70.64
15405;BME280;7801;48.124;11.590;2022-09-13T08:34:11;95142.88;;;18.31;70.90
15405;BME280;7801;48.124;11.590;2022-09-13T08:36:37;95144.09;;;18.34;71.22
15405;BME280;7801;48.124;11.590;2022-09-13T08:39:02;95144.63;;;18.39;70.96
15405;BME280;7801;48.124;11.590;2022-09-13T08:41:53;95136.75;;;18.46;70.45
15405;BME280;7801;48.124;11.590;2022-09-13T08:44:27;95135.34;;;18.52;69.32
15405;BME280;7801;48.124;11.590;2022-09-13T08:47:21;95137.78;;;18.58;69.71
15405;BME280;7801;48.124;11.590;2022-09-13T08:49:59;95133.38;;;18.65;68.49
15405;BME280;7801;48.124;11.590;2022-09-13T08:53:04;95146.47;;;18.67;68.64
15405;BME280;7801;48.124;11.590;2022-09-13T09:07:25;95131.06;;;18.99;68.03
15405;BME280;7801;48.124;11.590;2022-09-13T09:10:06;95129.75;;;19.08;66.13
15405;BME280;7801;48.124;11.590;2022-09-13T09:13:04;95125.25;;;19.16;67.27
15405;BME280;7801;48.124;11.590;2022-09-13T09:18:22;95129.25;;;19.22;67.65
15405;BME280;7801;48.124;11.590;2022-09-13T09:20:54;95125.44;;;19.23;68.73
15405;BME280;7801;48.124;11.590;2022-09-13T09:23:29;95131.75;;;19.31;67.79
15405;BME280;7801;48.124;11.590;2022-09-13T09:28:46;95126.38;;;19.50;67.17
15405;BME280;7801;48.124;11.590;2022-09-13T09:39:48;95121.59;;;19.82;67.45
15405;BME280;7801;48.124;11.590;2022-09-13T09:42:16;95111.31;;;19.87;66.25
15405;BME280;7801;48.124;11.590;2022-09-13T09:47:53;95113.47;;;19.78;67.57
15405;BME280;7801;48.124;11.590;2022-09-13T09:50:25;95111.91;;;19.77;67.64
15405;BME280;7801;48.124;11.590;2022-09-13T09:58:14;95122.91;;;20.34;62.51
15405;BME280;7801;48.124;11.590;2022-09-13T10:00:57;95116.69;;;20.30;63.43
15405;BME280;7801;48.124;11.590;2022-09-13T10:03:29;95108.09;;;20.24;64.04
15405;BME280;7801;48.124;11.590;2022-09-13T10:06:26;95095.00;;;20.22;63.75
15405;BME280;7801;48.124;11.590;2022-09-13T10:09:20;95087.16;;;20.14;64.36
15405;BME280;7801;48.124;11.590;2022-09-13T10:17:22;95084.28;;;20.26;64.09
15405;BME280;7801;48.124;11.590;2022-09-13T10:22:17;95079.13;;;20.40;62.07
15405;BME280;7801;48.124;11.590;2022-09-13T10:24:43;95087.47;;;20.54;62.09
15405;BME280;7801;48.124;11.590;2022-09-13T10:27:46;95078.72;;;20.65;61.75
15405;BME280;7801;48.124;11.590;2022-09-13T10:32:57;95069.37;;;20.58;62.06
15405;BME280;7801;48.124;11.590;2022-09-13T10:35:23;95061.72;;;20.61;61.95
15405;BME280;7801;48.124;11.590;2022-09-13T10:37:52;95063.28;;;20.62;61.74
15405;BME280;7801;48.124;11.590;2022-09-13T10:40:33;95063.09;;;20.74;60.96
15405;BME280;7801;48.124;11.590;2022-09-13T10:43:02;95063.44;;;20.72;62.87
15405;BME280;7801;48.124;11.590;2022-09-13T10:45:30;95061.94;;;20.75;61.57
15405;BME280;7801;48.124;11.590;2022-09-13T10:48:04;95062.66;;;20.72;62.01
15405;BME280;7801;48.124;11.590;2022-09-13T10:50:36;95063.09;;;20.74;61.69
15405;BME280;7801;48.124;11.590;2022-09-13T10:53:02;95062.13;;;20.63;64.32
15405;BME280;7801;48.124;11.590;2022-09-13T10:55:33;95063.75;;;20.67;62.33
15405;BME280;7801;48.124;11.590;2022-09-13T11:07:29;95059.12;;;20.94;62.17
15405;BME280;7801;48.124;11.590;2022-09-13T11:10:06;95049.31;;;21.12;59.40
15405;BME280;7801;48.124;11.590;2022-09-13T11:15:09;95042.56;;;21.25;61.76
15405;BME280;7801;48.124;11.590;2022-09-13T11:24:09;95035.06;;;21.45;60.42
15405;BME280;7801;48.124;11.590;2022-09-13T11:30:04;95033.72;;;21.66;58.65
15405;BME280;7801;48.124;11.590;2022-09-13T11:33:13;95041.53;;;21.74;57.02
15405;BME280;7801;48.124;11.590;2022-09-13T11:36:09;95031.56;;;21.78;55.84
15405;BME280;7801;48.124;11.590;2022-09-13T11:41:40;95034.75;;;21.91;55.97
15405;BME280;7801;48.124;11.590;2022-09-13T11:50:49;95039.50;;;22.01;57.29
15405;BME280;7801;48.124;11.590;2022-09-13T11:56:45;95033.44;;;22.15;53.00
15405;BME280;7801;48.124;11.590;2022-09-13T12:02:12;95028.72;;;22.05;54.25
15405;BME280;7801;48.124;11.590;2022-09-13T12:04:51;95027.34;;;21.81;55.90
15405;BME280;7801;48.124;11.590;2022-09-13T12:07:50;95031.56;;;21.78;56.39
15405;BME280;7801;48.124;11.590;2022-09-13T12:11:18;95038.19;;;21.47;60.23
15405;BME280;7801;48.124;11.590;2022-09-13T12:13:17;95037.31;;;21.36;60.58
15405;BME280;7801;48.124;11.590;2022-09-13T12:15:45;95040.31;;;21.68;56.34
15405;BME280;7801;48.124;11.590;2022-09-13T12:18:16;95037.13;;;21.55;60.27
15405;BME280;7801;48.124;11.590;2022-09-13T12:20:57;95031.69;;;21.92;54.40
15405;BME280;7801;48.124;11.590;2022-09-13T12:23:36;95039.37;;;21.90;54.31
15405;BME280;7801;48.124;11.590;2022-09-13T12:26:28;95027.97;;;22.08;54.74
15405;BME280;7801;48.124;11.590;2022-09-13T12:29:02;95024.63;;;21.81;56.25
15405;BME280;7801;48.124;11.590;2022-09-13T12:31:32;95026.31;;;21.96;57.20
15405;BME280;7801;48.124;11.590;2022-09-13T12:33:58;95021.78;;;22.07;56.11
15405;BME280;7801;48.124;11.590;2022-09-13T12:40:21;95015.47;;;21.92;56.48
15405;BME280;7801;48.124;11.590;2022-09-13T12:51:10;95004.22;;;22.31;51.90
15405;BME280;7801;48.124;11.590;2022-09-13T12:54:00;95004.88;;;22.76;50.29
15405;BME280;7801;48.124;11.590;2022-09-13T13:05:46;95008.03;;;22.23;52.17
15405;BME280;7801;48.124;11.590;2022-09-13T13:08:26;95003.41;;;22.27;50.78
15405;BME280;7801;48.124;11.590;2022-09-13T13:11:11;95002.38;;;22.42;51.40
15405;BME280;7801;48.124;11.590;2022-09-13T13:13:40;95007.09;;;22.01;54.34
15405;BME280;7801;48.124;11.590;2022-09-13T13:16:25;95006.88;;;21.83;54.71
15405;BME280;7801;48.124;11.590;2022-09-13T13:18:53;95002.88;;;22.07;51.43
15405;BME280;7801;48.124;11.590;2022-09-13T13:26:56;95010.44;;;22.39;52.29
15405;BME280;7801;48.124;11.590;2022-09-13T13:34:28;95003.78;;;22.84;50.67
15405;BME280;7801;48.124;11.590;2022-09-13T13:49:52;94991.22;;;22.54;49.53
15405;BME280;7801;48.124;11.590;2022-09-13T13:52:36;94989.84;;;22.78;48.84
15405;BME280;7801;48.124;11.590;2022-09-13T14:01:24;94980.75;;;23.33;43.99
15405;BME280;7801;48.124;11.590;2022-09-13T14:07:13;94982.44;;;22.72;48.36
15405;BME280;7801;48.124;11.590;2022-09-13T14:10:26;94979.56;;;22.40;49.44
15405;BME280;7801;48.124;11.590;2022-09-13T14:12:52;94969.63;;;22.58;47.91
15405;BME280;7801;48.124;11.590;2022-09-13T14:21:08;94962.44;;;22.83;49.34
15405;BME280;7801;48.124;11.590;2022-09-13T14:23:41;94961.56;;;22.72;48.24
15405;BME280;7801;48.124;11.590;2022-09-13T14:26:08;94961.13;;;22.59;49.98
15405;BME280;7801;48.124;11.590;2022-09-13T14:28:35;94956.09;;;22.58;48.86
15405;BME280;7801;48.124;11.590;2022-09-13T14:31:01;94958.16;;;22.79;47.64
15405;BME280;7801;48.124;11.590;2022-09-13T14:33:29;94962.03;;;22.78;47.99
15405;BME280;7801;48.124;11.590;2022-09-13T14:36:12;94966.59;;;22.74;48.56
15405;BME280;7801;48.124;11.590;2022-09-13T14:38:46;94958.94;;;22.86;47.87
15405;BME280;7801;48.124;11.590;2022-09-13T14:41:18;94960.19;;;23.00;48.09
15405;BME280;7801;48.124;11.590;2022-09-13T14:43:45;94952.16;;;23.42;46.69
15405;BME280;7801;48.124;11.590;2022-09-13T14:46:23;94954.06;;;23.24;48.06
15405;BME280;7801;48.124;11.590;2022-09-13T14:48:54;94958.34;;;23.43;47.79
15405;BME280;7801;48.124;11.590;2022-09-13T14:51:34;94955.34;;;23.69;46.88
15405;BME280;7801;48.124;11.590;2022-09-13T14:54:15;94941.75;;;23.73;46.67
15405;BME280;7801;48.124;11.590;2022-09-13T14:56:46;94938.28;;;23.72;46.54
15405;BME280;7801;48.124;11.590;2022-09-13T14:59:20;94939.06;;;23.90;46.19
15405;BME280;7801;48.124;11.590;2022-09-13T15:01:50;94934.78;;;23.93;46.11
15405;BME280;7801;48.124;11.590;2022-09-13T15:04:16;94920.47;;;23.92;45.19
15405;BME280;7801;48.124;11.590;2022-09-13T15:06:42;94920.47;;;23.96;45.77
15405;BME280;7801;48.124;11.590;2022-09-13T15:11:59;94925.91;;;24.03;46.27
15405;BME280;7801;48.124;11.590;2022-09-13T15:14:33;94916.59;;;24.01;46.79
15405;BME280;7801;48.124;11.590;2022-09-13T15:17:09;94915.44;;;24.05;47.10
15405;BME280;7801;48.124;11.590;2022-09-13T15:19:50;94908.87;;;23.81;47.88
15405;BME280;7801;48.124;11.590;2022-09-13T15:22:45;94905.00;;;23.89;47.06
15405;BME280;7801;48.124;11.590;2022-09-13T15:25:38;94903.44;;;23.74;48.41
15405;BME280;7801;48.124;11.590;2022-09-13T15:28:04;94904.94;;;23.33;50.46
15405;BME280;7801;48.124;11.590;2022-09-13T15:30:38;94915.38;;;23.30;49.01
15405;BME280;7801;48.124;11.590;2022-09-13T15:35:39;94905.78;;;23.61;48.14
15405;BME280;7801;48.124;11.590;2022-09-13T15:38:26;94903.47;;;23.60;48.00
15405;BME280;7801;48.124;11.590;2022-09-13T15:43:25;94896.84;;;23.47;48.09
15405;BME280;7801;48.124;11.590;2022-09-13T15:45:50;94890.31;;;23.58;46.86
15405;BME280;7801;48.124;11.590;2022-09-13T15:48:35;94882.53;;;23.39;48.46
15405;BME280;7801;48.124;11.590;2022-09-13T15:51:13;94887.50;;;23.09;49.10
15405;BME280;7801;48.124;11.590;2022-09-13T15:53:40;94889.00;;;22.92;48.99
15405;BME280;7801;48.124;11.590;2022-09-13T15:56:11;94881.19;;;22.73;50.52
15405;BME280;7801;48.124;11.590;2022-09-13T15:58:38;94881.56;;;22.68;49.68
15405;BME280;7801;48.124;11.590;2022-09-13T16:01:05;94870.66;;;22.46;51.23
15405;BME280;7801;48.124;11.590;2022-09-13T16:03:31;94876.00;;;22.32;51.69
15405;BME280;7801;48.124;11.590;2022-09-13T16:05:58;94877.13;;;22.20;52.34
15405;BME280;7801;48.124;11.590;2022-09-13T16:08:24;94872.81;;;22.09;52.32
15405;BME280;7801;48.124;11.590;2022-09-13T16:10:50;94874.72;;;22.08;51.24
15405;BME280;7801;48.124;11.590;2022-09-13T16:13:15;94872.78;;;22.02;53.43
15405;BME280;7801;48.124;11.590;2022-09-13T16:15:42;94875.00;;;21.92;53.19
15405;BME280;7801;48.124;11.590;2022-09-13T16:18:08;94873.41;;;21.88;53.31
15405;BME280;7801;48.124;11.590;2022-09-13T16:20:35;94872.25;;;21.85;54.87
15405;BME280;7801;48.124;11.590;2022-09-13T16:23:01;94863.75;;;21.87;55.82
15405;BME280;7801;48.124;11.590;2022-09-13T16:25:27;94862.94;;;21.76;56.56
15405;BME280;7801;48.124;11.590;2022-09-13T16:27:54;94864.41;;;21.66;56.92
15405;BME280;7801;48.124;11.590;2022-09-13T16:30:20;94863.25;;;21.67;58.07
15405;BME280;7801;48.124;11.590;2022-09-13T16:32:49;94865.56;;;21.69;58.30
15405;BME280;7801;48.124;11.590;2022-09-13T16:35:15;94864.50;;;21.80;58.34
15405;BME280;7801;48.124;11.590;2022-09-13T16:37:41;94865.59;;;21.72;59.51
15405;BME280;7801;48.124;11.590;2022-09-13T16:40:09;94860.16;;;21.65;59.59
15405;BME280;7801;48.124;11.590;2022-09-13T16:42:35;94872.16;;;21.71;59.82